sensor_id;sensor_type;location;lat;lon;timestamp;temperature;humidity
46416;DHT22;32620;51.704;7.822;2022-07-21T00:01:31;19.70;99.90
46416;DHT22;32620;51.704;7.822;2022-07-21T00:03:56;19.50;99.90
46416;DHT22;32620;51.704;7.822;2022-07-21T00:06:22;19.20;99.90
46416;DHT22;32620;51.704;7.822;2022-07-21T00:08:47;19.20;99.90
46416;DHT22;32620;51.704;7.822;2022-07-21T00:11:13;19.00;99.90
46416;DHT22;32620;51.704;7.822;2022-07-21T00:13:38;18.90;99.90
46416;DHT22;32620;51.704;7.822;2022-07-21T00:16:04;19.00;99.90
46416;DHT22;32620;51.704;7.822;2022-07-21T00:18:29;18.90;99.90
46416;DHT22;32620;51.704;7.822;2022-07-21T00:20:56;18.80;99.90
46416;DHT22;32620;51.704;7.822;2022-07-21T00:23:22;18.80;99.90
46416;DHT22;32620;51.704;7.822;2022-07-21T00:25:48;18.80;99.90
46416;DHT22;32620;51.704;7.822;2022-07-21T00:28:13;18.80;99.90
46416;DHT22;32620;51.704;7.822;2022-07-21T00:30:39;18.80;99.90
46416;DHT22;32620;51.704;7.822;2022-07-21T00:33:04;18.80;99.90
46416;DHT22;32620;51.704;7.822;2022-07-21T00:35:30;18.90;99.90
46416;DHT22;32620;51.704;7.822;2022-07-21T00:37:56;18.90;99.90
46416;DHT22;32620;51.704;7.822;2022-07-21T00:40:21;18.90;99.90
46416;DHT22;32620;51.704;7.822;2022-07-21T00:42:47;18.90;99.90
46416;DHT22;32620;51.704;7.822;2022-07-21T00:45:12;18.90;99.90
46416;DHT22;32620;51.704;7.822;2022-07-21T00:47:38;18.90;99.90
46416;DHT22;32620;51.704;7.822;2022-07-21T00:50:05;18.90;99.90
46416;DHT22;32620;51.704;7.822;2022-07-21T00:52:31;18.90;99.90
46416;DHT22;32620;51.704;7.822;2022-07-21T00:54:57;19.00;99.90
46416;DHT22;32620;51.704;7.822;2022-07-21T00:57:23;19.00;99.90
46416;DHT22;32620;51.704;7.822;2022-07-21T00:59:48;19.00;99.90
46416;DHT22;32620;51.704;7.822;2022-07-21T01:02:14;19.00;99.90
46416;DHT22;32620;51.704;7.822;2022-07-21T01:04:40;19.00;99.90
46416;DHT22;32620;51.704;7.822;2022-07-21T01:07:05;19.10;99.90
46416;DHT22;32620;51.704;7.822;2022-07-21T01:09:31;19.10;99.90
46416;DHT22;32620;51.704;7.822;2022-07-21T01:11:57;19.10;99.90
46416;DHT22;32620;51.704;7.822;2022-07-21T01:14:23;19.10;99.90
46416;DHT22;32620;51.704;7.822;2022-07-21T01:16:49;19.20;99.90
46416;DHT22;32620;51.704;7.822;2022-07-21T01:19:15;19.20;99.90
46416;DHT22;32620;51.704;7.822;2022-07-21T01:24:07;19.10;99.90
46416;DHT22;32620;51.704;7.822;2022-07-21T01:26:49;19.10;99.90
46416;DHT22;32620;51.704;7.822;2022-07-21T01:29:15;19.10;99.90
46416;DHT22;32620;51.704;7.822;2022-07-21T01:31:41;19.10;99.90
46416;DHT22;32620;51.704;7.822;2022-07-21T01:34:07;19.10;99.90
46416;DHT22;32620;51.704;7.822;2022-07-21T01:36:33;19.10;99.90
46416;DHT22;32620;51.704;7.822;2022-07-21T01:38:59;19.10;99.90
46416;DHT22;32620;51.704;7.822;2022-07-21T01:41:45;19.00;99.90
46416;DHT22;32620;51.704;7.822;2022-07-21T01:44:11;19.00;99.90
46416;DHT22;32620;51.704;7.822;2022-07-21T01:46:38;18.90;99.90
46416;DHT22;32620;51.704;7.822;2022-07-21T01:49:04;18.90;99.90
46416;DHT22;32620;51.704;7.822;2022-07-21T01:51:29;19.00;99.90
46416;DHT22;32620;51.704;7.822;2022-07-21T01:53:55;18.90;99.90
46416;DHT22;32620;51.704;7.822;2022-07-21T01:56:21;18.90;99.90
46416;DHT22;32620;51.704;7.822;2022-07-21T01:58:48;18.90;99.90
46416;DHT22;32620;51.704;7.822;2022-07-21T02:01:15;18.90;99.90
46416;DHT22;32620;51.704;7.822;2022-07-21T02:03:40;19.00;99.90
46416;DHT22;32620;51.704;7.822;2022-07-21T02:06:06;18.90;99.90
46416;DHT22;32620;51.704;7.822;2022-07-21T02:08:32;18.90;99.90
46416;DHT22;32620;51.704;7.822;2022-07-21T02:10:58;18.90;99.90
46416;DHT22;32620;51.704;7.822;2022-07-21T02:13:24;18.80;99.90
46416;DHT22;32620;51.704;7.822;2022-07-21T02:15:49;18.70;99.90
46416;DHT22;32620;51.704;7.822;2022-07-21T02:18:15;18.80;99.90
46416;DHT22;32620;51.704;7.822;2022-07-21T02:20:41;18.70;99.90
46416;DHT22;32620;51.704;7.822;2022-07-21T02:23:07;18.60;99.90
46416;DHT22;32620;51.704;7.822;2022-07-21T02:25:32;18.70;99.90
46416;DHT22;32620;51.704;7.822;2022-07-21T02:27:58;18.70;99.90
46416;DHT22;32620;51.704;7.822;2022-07-21T02:30:36;18.60;99.90
46416;DHT22;32620;51.704;7.822;2022-07-21T02:33:02;18.70;99.90
46416;DHT22;32620;51.704;7.822;2022-07-21T02:35:27;18.60;99.90
46416;DHT22;32620;51.704;7.822;2022-07-21T02:37:53;18.60;99.90
46416;DHT22;32620;51.704;7.822;2022-07-21T02:40:19;18.60;99.90
46416;DHT22;32620;51.704;7.822;2022-07-21T02:42:44;18.50;99.90
46416;DHT22;32620;51.704;7.822;2022-07-21T02:45:10;18.50;99.90
46416;DHT22;32620;51.704;7.822;2022-07-21T02:48:08;18.50;99.90
46416;DHT22;32620;51.704;7.822;2022-07-21T02:50:22;18.50;99.90
46416;DHT22;32620;51.704;7.822;2022-07-21T02:52:48;18.50;99.90
46416;DHT22;32620;51.704;7.822;2022-07-21T02:55:15;18.40;99.90
46416;DHT22;32620;51.704;7.822;2022-07-21T02:57:40;18.50;99.90
46416;DHT22;32620;51.704;7.822;2022-07-21T03:00:07;18.50;99.90
46416;DHT22;32620;51.704;7.822;2022-07-21T03:02:32;18.40;99.90
46416;DHT22;32620;51.704;7.822;2022-07-21T03:04:58;18.40;99.90
46416;DHT22;32620;51.704;7.822;2022-07-21T03:07:23;18.40;99.90
46416;DHT22;32620;51.704;7.822;2022-07-21T03:09:49;18.30;99.90
46416;DHT22;32620;51.704;7.822;2022-07-21T03:12:14;18.40;99.90
46416;DHT22;32620;51.704;7.822;2022-07-21T03:14:40;18.30;99.90
46416;DHT22;32620;51.704;7.822;2022-07-21T03:17:05;18.30;99.90
46416;DHT22;32620;51.704;7.822;2022-07-21T03:19:31;18.30;99.90
46416;DHT22;32620;51.704;7.822;2022-07-21T03:21:56;18.30;99.90
46416;DHT22;32620;51.704;7.822;2022-07-21T03:24:21;18.30;99.90
46416;DHT22;32620;51.704;7.822;2022-07-21T03:26:47;18.30;99.90
46416;DHT22;32620;51.704;7.822;2022-07-21T03:29:12;18.40;99.90
46416;DHT22;32620;51.704;7.822;2022-07-21T03:31:38;18.30;99.90
46416;DHT22;32620;51.704;7.822;2022-07-21T03:34:03;18.30;99.90
46416;DHT22;32620;51.704;7.822;2022-07-21T03:36:29;18.20;99.90
46416;DHT22;32620;51.704;7.822;2022-07-21T03:38:54;18.20;99.90
46416;DHT22;32620;51.704;7.822;2022-07-21T03:41:20;18.10;99.90
46416;DHT22;32620;51.704;7.822;2022-07-21T03:43:45;18.10;99.90
46416;DHT22;32620;51.704;7.822;2022-07-21T03:46:11;18.10;99.90
46416;DHT22;32620;51.704;7.822;2022-07-21T03:48:36;18.10;99.90
46416;DHT22;32620;51.704;7.822;2022-07-21T03:51:02;18.10;99.90
46416;DHT22;32620;51.704;7.822;2022-07-21T03:53:27;18.10;99.90
46416;DHT22;32620;51.704;7.822;2022-07-21T03:55:53;18.10;99.90
46416;DHT22;32620;51.704;7.822;2022-07-21T03:58:18;18.10;99.90
46416;DHT22;32620;51.704;7.822;2022-07-21T04:00:44;18.00;99.90
46416;DHT22;32620;51.704;7.822;2022-07-21T04:03:10;18.00;99.90
46416;DHT22;32620;51.704;7.822;2022-07-21T04:05:36;18.00;99.90
46416;DHT22;32620;51.704;7.822;2022-07-21T04:08:02;18.00;99.90
46416;DHT22;32620;51.704;7.822;2022-07-21T04:10:29;18.00;99.90
46416;DHT22;32620;51.704;7.822;2022-07-21T04:12:55;17.90;99.90
46416;DHT22;32620;51.704;7.822;2022-07-21T04:15:21;18.00;99.90
46416;DHT22;32620;51.704;7.822;2022-07-21T04:17:47;18.00;99.90
46416;DHT22;32620;51.704;7.822;2022-07-21T04:20:13;18.00;99.90
46416;DHT22;32620;51.704;7.822;2022-07-21T04:22:39;18.10;99.90
46416;DHT22;32620;51.704;7.822;2022-07-21T04:25:05;18.10;99.90
46416;DHT22;32620;51.704;7.822;2022-07-21T04:27:31;18.00;99.90
46416;DHT22;32620;51.704;7.822;2022-07-21T04:29:57;18.00;99.90
46416;DHT22;32620;51.704;7.822;2022-07-21T04:32:23;18.00;99.90
46416;DHT22;32620;51.704;7.822;2022-07-21T04:34:48;18.00;99.90
46416;DHT22;32620;51.704;7.822;2022-07-21T04:37:14;18.10;99.90
46416;DHT22;32620;51.704;7.822;2022-07-21T04:39:39;18.10;99.90
46416;DHT22;32620;51.704;7.822;2022-07-21T04:42:05;18.10;99.90
46416;DHT22;32620;51.704;7.822;2022-07-21T04:44:30;18.20;99.90
46416;DHT22;32620;51.704;7.822;2022-07-21T04:46:56;18.30;99.90
46416;DHT22;32620;51.704;7.822;2022-07-21T04:49:21;18.30;99.90
46416;DHT22;32620;51.704;7.822;2022-07-21T04:51:47;18.40;99.90
46416;DHT22;32620;51.704;7.822;2022-07-21T04:54:12;18.50;99.90
46416;DHT22;32620;51.704;7.822;2022-07-21T04:56:40;18.50;99.90
46416;DHT22;32620;51.704;7.822;2022-07-21T04:59:05;18.40;99.90
46416;DHT22;32620;51.704;7.822;2022-07-21T05:01:31;18.40;99.90
46416;DHT22;32620;51.704;7.822;2022-07-21T05:03:56;18.40;99.90
46416;DHT22;32620;51.704;7.822;2022-07-21T05:06:22;18.40;99.90
46416;DHT22;32620;51.704;7.822;2022-07-21T05:08:47;18.40;99.90
46416;DHT22;32620;51.704;7.822;2022-07-21T05:11:13;18.40;99.90
46416;DHT22;32620;51.704;7.822;2022-07-21T05:13:38;18.40;99.90
46416;DHT22;32620;51.704;7.822;2022-07-21T05:16:04;18.30;99.90
46416;DHT22;32620;51.704;7.822;2022-07-21T05:18:30;18.30;99.90
46416;DHT22;32620;51.704;7.822;2022-07-21T05:20:56;18.40;99.90
46416;DHT22;32620;51.704;7.822;2022-07-21T05:23:21;18.40;99.90
46416;DHT22;32620;51.704;7.822;2022-07-21T05:25:47;18.40;99.90
46416;DHT22;32620;51.704;7.822;2022-07-21T05:28:12;18.40;99.90
46416;DHT22;32620;51.704;7.822;2022-07-21T05:30:38;18.50;99.90
46416;DHT22;32620;51.704;7.822;2022-07-21T05:33:03;18.40;99.90
46416;DHT22;32620;51.704;7.822;2022-07-21T05:35:29;18.40;99.90
46416;DHT22;32620;51.704;7.822;2022-07-21T05:37:55;18.40;99.90
46416;DHT22;32620;51.704;7.822;2022-07-21T05:40:21;18.40;99.90
46416;DHT22;32620;51.704;7.822;2022-07-21T05:42:46;18.40;99.90
46416;DHT22;32620;51.704;7.822;2022-07-21T05:45:12;18.50;99.90
46416;DHT22;32620;51.704;7.822;2022-07-21T05:47:38;18.70;99.90
46416;DHT22;32620;51.704;7.822;2022-07-21T05:50:04;19.10;99.90
46416;DHT22;32620;51.704;7.822;2022-07-21T05:52:29;19.30;99.90
46416;DHT22;32620;51.704;7.822;2022-07-21T05:54:55;19.20;99.90
46416;DHT22;32620;51.704;7.822;2022-07-21T05:57:20;19.20;99.90
46416;DHT22;32620;51.704;7.822;2022-07-21T05:59:46;19.10;99.90
46416;DHT22;32620;51.704;7.822;2022-07-21T06:02:11;19.00;99.90
46416;DHT22;32620;51.704;7.822;2022-07-21T06:04:37;19.10;99.90
46416;DHT22;32620;51.704;7.822;2022-07-21T06:07:02;19.20;99.90
46416;DHT22;32620;51.704;7.822;2022-07-21T06:09:28;19.20;99.90
46416;DHT22;32620;51.704;7.822;2022-07-21T06:11:53;19.30;99.90
46416;DHT22;32620;51.704;7.822;2022-07-21T06:14:19;19.10;99.90
46416;DHT22;32620;51.704;7.822;2022-07-21T06:16:44;19.00;99.90
46416;DHT22;32620;51.704;7.822;2022-07-21T06:19:10;19.20;99.90
46416;DHT22;32620;51.704;7.822;2022-07-21T06:21:35;19.40;99.90
46416;DHT22;32620;51.704;7.822;2022-07-21T06:24:01;19.40;99.90
46416;DHT22;32620;51.704;7.822;2022-07-21T06:26:27;19.40;99.90
46416;DHT22;32620;51.704;7.822;2022-07-21T06:28:52;19.40;99.90
46416;DHT22;32620;51.704;7.822;2022-07-21T06:31:18;19.40;99.90
46416;DHT22;32620;51.704;7.822;2022-07-21T06:33:43;19.70;99.90
46416;DHT22;32620;51.704;7.822;2022-07-21T06:36:09;20.00;99.90
46416;DHT22;32620;51.704;7.822;2022-07-21T06:38:34;20.20;99.90
46416;DHT22;32620;51.704;7.822;2022-07-21T06:41:00;20.40;99.90
46416;DHT22;32620;51.704;7.822;2022-07-21T06:43:25;20.30;99.90
46416;DHT22;32620;51.704;7.822;2022-07-21T06:45:51;20.10;99.90
46416;DHT22;32620;51.704;7.822;2022-07-21T06:48:16;20.00;99.90
46416;DHT22;32620;51.704;7.822;2022-07-21T06:50:42;20.00;99.90
46416;DHT22;32620;51.704;7.822;2022-07-21T06:53:07;20.10;99.90
46416;DHT22;32620;51.704;7.822;2022-07-21T06:55:33;20.10;99.90
46416;DHT22;32620;51.704;7.822;2022-07-21T06:58:16;20.10;99.90
46416;DHT22;32620;51.704;7.822;2022-07-21T07:00:42;20.00;99.90
46416;DHT22;32620;51.704;7.822;2022-07-21T07:03:08;20.10;99.90
46416;DHT22;32620;51.704;7.822;2022-07-21T07:05:34;20.70;99.90
46416;DHT22;32620;51.704;7.822;2022-07-21T07:07:59;20.70;99.90
46416;DHT22;32620;51.704;7.822;2022-07-21T07:10:25;20.50;99.90
46416;DHT22;32620;51.704;7.822;2022-07-21T07:12:50;20.70;99.90
46416;DHT22;32620;51.704;7.822;2022-07-21T07:15:16;20.80;99.90
46416;DHT22;32620;51.704;7.822;2022-07-21T07:17:41;20.90;99.90
46416;DHT22;32620;51.704;7.822;2022-07-21T07:20:07;21.30;99.90
46416;DHT22;32620;51.704;7.822;2022-07-21T07:22:33;22.20;99.90
46416;DHT22;32620;51.704;7.822;2022-07-21T07:24:59;22.20;99.90
46416;DHT22;32620;51.704;7.822;2022-07-21T07:27:24;21.50;99.90
46416;DHT22;32620;51.704;7.822;2022-07-21T07:29:50;21.10;99.90
46416;DHT22;32620;51.704;7.822;2022-07-21T07:32:15;21.00;99.90
46416;DHT22;32620;51.704;7.822;2022-07-21T07:34:41;21.20;99.90
46416;DHT22;32620;51.704;7.822;2022-07-21T07:37:06;21.10;99.90
46416;DHT22;32620;51.704;7.822;2022-07-21T07:39:32;20.90;99.90
46416;DHT22;32620;51.704;7.822;2022-07-21T07:41:57;21.00;99.90
46416;DHT22;32620;51.704;7.822;2022-07-21T07:44:23;20.80;99.90
46416;DHT22;32620;51.704;7.822;2022-07-21T07:46:49;20.80;99.90
46416;DHT22;32620;51.704;7.822;2022-07-21T07:49:14;20.70;99.90
46416;DHT22;32620;51.704;7.822;2022-07-21T07:51:40;20.90;99.90
46416;DHT22;32620;51.704;7.822;2022-07-21T07:54:05;20.90;99.90
46416;DHT22;32620;51.704;7.822;2022-07-21T07:56:31;21.10;99.90
46416;DHT22;32620;51.704;7.822;2022-07-21T07:58:56;21.10;99.90
46416;DHT22;32620;51.704;7.822;2022-07-21T08:01:22;21.00;99.90
46416;DHT22;32620;51.704;7.822;2022-07-21T08:03:47;21.30;99.90
46416;DHT22;32620;51.704;7.822;2022-07-21T08:06:13;21.70;99.90
46416;DHT22;32620;51.704;7.822;2022-07-21T08:08:39;22.00;99.90
46416;DHT22;32620;51.704;7.822;2022-07-21T08:11:04;21.90;99.90
46416;DHT22;32620;51.704;7.822;2022-07-21T08:13:29;21.60;99.90
46416;DHT22;32620;51.704;7.822;2022-07-21T08:15:55;21.30;99.90
46416;DHT22;32620;51.704;7.822;2022-07-21T08:18:21;21.20;99.90
46416;DHT22;32620;51.704;7.822;2022-07-21T08:20:46;21.10;99.90
46416;DHT22;32620;51.704;7.822;2022-07-21T08:23:15;21.10;99.90
46416;DHT22;32620;51.704;7.822;2022-07-21T08:25:42;21.20;99.90
46416;DHT22;32620;51.704;7.822;2022-07-21T08:28:07;21.10;99.90
46416;DHT22;32620;51.704;7.822;2022-07-21T08:30:42;21.20;99.90
46416;DHT22;32620;51.704;7.822;2022-07-21T08:33:07;21.50;99.90
46416;DHT22;32620;51.704;7.822;2022-07-21T08:35:33;21.60;99.90
46416;DHT22;32620;51.704;7.822;2022-07-21T08:38:02;21.80;99.90
46416;DHT22;32620;51.704;7.822;2022-07-21T08:40:28;22.10;99.90
46416;DHT22;32620;51.704;7.822;2022-07-21T08:42:54;22.30;99.90
46416;DHT22;32620;51.704;7.822;2022-07-21T08:45:20;22.00;99.90
46416;DHT22;32620;51.704;7.822;2022-07-21T08:47:50;21.90;99.90
46416;DHT22;32620;51.704;7.822;2022-07-21T08:50:16;21.80;99.90
46416;DHT22;32620;51.704;7.822;2022-07-21T08:52:41;21.80;99.90
46416;DHT22;32620;51.704;7.822;2022-07-21T08:55:07;22.00;99.90
46416;DHT22;32620;51.704;7.822;2022-07-21T08:57:33;21.70;99.90
46416;DHT22;32620;51.704;7.822;2022-07-21T08:59:58;21.50;99.90
46416;DHT22;32620;51.704;7.822;2022-07-21T09:02:27;21.20;99.90
46416;DHT22;32620;51.704;7.822;2022-07-21T09:04:53;21.20;99.90
46416;DHT22;32620;51.704;7.822;2022-07-21T09:07:19;21.40;99.90
46416;DHT22;32620;51.704;7.822;2022-07-21T09:09:53;21.70;99.90
46416;DHT22;32620;51.704;7.822;2022-07-21T09:12:19;21.70;99.90
46416;DHT22;32620;51.704;7.822;2022-07-21T09:14:45;21.90;99.90
46416;DHT22;32620;51.704;7.822;2022-07-21T09:17:10;22.30;99.90
46416;DHT22;32620;51.704;7.822;2022-07-21T09:19:37;22.60;99.90
46416;DHT22;32620;51.704;7.822;2022-07-21T09:22:05;22.80;99.90
46416;DHT22;32620;51.704;7.822;2022-07-21T09:24:33;23.20;99.90
46416;DHT22;32620;51.704;7.822;2022-07-21T09:29:34;23.50;99.90
46416;DHT22;32620;51.704;7.822;2022-07-21T09:32:11;23.50;99.90
46416;DHT22;32620;51.704;7.822;2022-07-21T09:34:37;23.60;99.90
46416;DHT22;32620;51.704;7.822;2022-07-21T09:37:04;23.50;99.90
46416;DHT22;32620;51.704;7.822;2022-07-21T09:40:03;23.30;99.90
46416;DHT22;32620;51.704;7.822;2022-07-21T09:42:16;23.00;99.90
46416;DHT22;32620;51.704;7.822;2022-07-21T09:44:42;23.00;99.90
46416;DHT22;32620;51.704;7.822;2022-07-21T09:47:09;22.90;99.90
46416;DHT22;32620;51.704;7.822;2022-07-21T09:49:34;23.10;99.90
46416;DHT22;32620;51.704;7.822;2022-07-21T09:52:03;22.90;99.90
46416;DHT22;32620;51.704;7.822;2022-07-21T09:54:42;23.20;99.90
46416;DHT22;32620;51.704;7.822;2022-07-21T09:57:08;23.50;99.90
46416;DHT22;32620;51.704;7.822;2022-07-21T09:59:33;24.00;99.90
46416;DHT22;32620;51.704;7.822;2022-07-21T10:01:59;23.70;99.90
46416;DHT22;32620;51.704;7.822;2022-07-21T10:04:25;23.70;99.90
46416;DHT22;32620;51.704;7.822;2022-07-21T10:06:50;24.20;99.90
46416;DHT22;32620;51.704;7.822;2022-07-21T10:09:16;24.10;99.90
46416;DHT22;32620;51.704;7.822;2022-07-21T10:11:42;23.90;99.90
46416;DHT22;32620;51.704;7.822;2022-07-21T10:14:10;23.90;99.90
46416;DHT22;32620;51.704;7.822;2022-07-21T10:16:36;23.60;99.90
46416;DHT22;32620;51.704;7.822;2022-07-21T10:19:02;23.80;99.90
46416;DHT22;32620;51.704;7.822;2022-07-21T10:21:50;23.60;99.90
46416;DHT22;32620;51.704;7.822;2022-07-21T10:24:16;23.40;99.90
46416;DHT22;32620;51.704;7.822;2022-07-21T10:27:13;23.20;99.90
46416;DHT22;32620;51.704;7.822;2022-07-21T10:29:59;23.00;99.90
46416;DHT22;32620;51.704;7.822;2022-07-21T10:32:14;23.10;99.90
46416;DHT22;32620;51.704;7.822;2022-07-21T10:34:40;23.00;99.90
46416;DHT22;32620;51.704;7.822;2022-07-21T10:37:05;23.20;99.90
46416;DHT22;32620;51.704;7.822;2022-07-21T10:39:31;23.40;99.90
46416;DHT22;32620;51.704;7.822;2022-07-21T10:41:58;23.70;99.90
46416;DHT22;32620;51.704;7.822;2022-07-21T11:01:40;24.60;99.90
46416;DHT22;32620;51.704;7.822;2022-07-21T11:04:10;24.40;99.90
46416;DHT22;32620;51.704;7.822;2022-07-21T11:06:37;24.20;99.90
46416;DHT22;32620;51.704;7.822;2022-07-21T11:12:13;25.50;99.90
46416;DHT22;32620;51.704;7.822;2022-07-21T11:14:36;24.60;99.90
46416;DHT22;32620;51.704;7.822;2022-07-21T11:17:02;24.60;99.90
46416;DHT22;32620;51.704;7.822;2022-07-21T11:22:23;23.90;99.90
46416;DHT22;32620;51.704;7.822;2022-07-21T11:24:50;23.70;99.90
46416;DHT22;32620;51.704;7.822;2022-07-21T11:27:16;23.50;99.90
46416;DHT22;32620;51.704;7.822;2022-07-21T11:29:43;23.60;99.90
46416;DHT22;32620;51.704;7.822;2022-07-21T11:32:10;23.70;99.90
46416;DHT22;32620;51.704;7.822;2022-07-21T11:34:37;23.90;99.90
46416;DHT22;32620;51.704;7.822;2022-07-21T11:37:03;24.00;99.90
46416;DHT22;32620;51.704;7.822;2022-07-21T11:39:28;24.10;99.90
46416;DHT22;32620;51.704;7.822;2022-07-21T11:41:54;24.20;99.90
46416;DHT22;32620;51.704;7.822;2022-07-21T11:44:22;24.30;99.90
46416;DHT22;32620;51.704;7.822;2022-07-21T11:46:49;24.00;99.90
46416;DHT22;32620;51.704;7.822;2022-07-21T11:49:15;24.10;99.90
46416;DHT22;32620;51.704;7.822;2022-07-21T11:51:49;23.80;99.90
46416;DHT22;32620;51.704;7.822;2022-07-21T11:54:23;24.10;99.90
46416;DHT22;32620;51.704;7.822;2022-07-21T11:56:49;24.00;99.90
46416;DHT22;32620;51.704;7.822;2022-07-21T11:59:15;24.00;99.90
46416;DHT22;32620;51.704;7.822;2022-07-21T12:01:48;23.90;99.90
46416;DHT22;32620;51.704;7.822;2022-07-21T12:04:14;23.80;99.90
46416;DHT22;32620;51.704;7.822;2022-07-21T12:06:40;23.60;99.90
46416;DHT22;32620;51.704;7.822;2022-07-21T12:09:05;23.40;99.90
46416;DHT22;32620;51.704;7.822;2022-07-21T12:11:33;23.20;99.90
46416;DHT22;32620;51.704;7.822;2022-07-21T12:13:59;23.30;99.90
46416;DHT22;32620;51.704;7.822;2022-07-21T12:16:26;23.10;99.90
46416;DHT22;32620;51.704;7.822;2022-07-21T12:19:23;23.10;99.90
46416;DHT22;32620;51.704;7.822;2022-07-21T12:21:52;23.00;99.90
46416;DHT22;32620;51.704;7.822;2022-07-21T12:24:18;22.90;99.90
46416;DHT22;32620;51.704;7.822;2022-07-21T12:26:44;22.90;99.90
46416;DHT22;32620;51.704;7.822;2022-07-21T12:29:10;22.90;99.90
46416;DHT22;32620;51.704;7.822;2022-07-21T12:31:36;22.90;99.90
46416;DHT22;32620;51.704;7.822;2022-07-21T12:34:10;22.70;99.90
46416;DHT22;32620;51.704;7.822;2022-07-21T12:36:36;22.80;99.90
46416;DHT22;32620;51.704;7.822;2022-07-21T12:39:12;22.70;99.90
46416;DHT22;32620;51.704;7.822;2022-07-21T12:41:43;22.70;99.90
46416;DHT22;32620;51.704;7.822;2022-07-21T12:44:08;22.80;99.90
46416;DHT22;32620;51.704;7.822;2022-07-21T12:46:34;22.80;99.90
46416;DHT22;32620;51.704;7.822;2022-07-21T12:49:08;22.70;99.90
46416;DHT22;32620;51.704;7.822;2022-07-21T12:51:35;22.50;99.90
46416;DHT22;32620;51.704;7.822;2022-07-21T12:54:00;22.60;99.90
46416;DHT22;32620;51.704;7.822;2022-07-21T12:56:27;22.50;99.90
46416;DHT22;32620;51.704;7.822;2022-07-21T12:58:53;22.60;99.90
46416;DHT22;32620;51.704;7.822;2022-07-21T13:01:20;22.60;99.90
46416;DHT22;32620;51.704;7.822;2022-07-21T13:03:47;22.40;99.90
46416;DHT22;32620;51.704;7.822;2022-07-21T13:06:13;22.20;99.90
46416;DHT22;32620;51.704;7.822;2022-07-21T13:08:41;22.00;99.90
46416;DHT22;32620;51.704;7.822;2022-07-21T13:11:07;21.70;99.90
46416;DHT22;32620;51.704;7.822;2022-07-21T13:13:33;21.70;99.90
46416;DHT22;32620;51.704;7.822;2022-07-21T13:15:59;21.50;99.90
46416;DHT22;32620;51.704;7.822;2022-07-21T13:18:24;21.50;99.90
46416;DHT22;32620;51.704;7.822;2022-07-21T13:20:50;21.50;99.90
46416;DHT22;32620;51.704;7.822;2022-07-21T13:23:17;21.40;99.90
46416;DHT22;32620;51.704;7.822;2022-07-21T13:25:42;21.60;99.90
46416;DHT22;32620;51.704;7.822;2022-07-21T13:28:08;21.70;99.90
46416;DHT22;32620;51.704;7.822;2022-07-21T13:30:34;21.80;99.90
46416;DHT22;32620;51.704;7.822;2022-07-21T13:32:59;21.70;99.90
46416;DHT22;32620;51.704;7.822;2022-07-21T13:35:25;21.50;99.90
46416;DHT22;32620;51.704;7.822;2022-07-21T13:37:50;21.30;99.90
46416;DHT22;32620;51.704;7.822;2022-07-21T13:40:16;21.30;99.90
46416;DHT22;32620;51.704;7.822;2022-07-21T13:42:41;21.30;99.90
46416;DHT22;32620;51.704;7.822;2022-07-21T13:45:07;21.50;99.90
46416;DHT22;32620;51.704;7.822;2022-07-21T13:47:36;21.60;99.90
46416;DHT22;32620;51.704;7.822;2022-07-21T13:50:01;21.60;99.90
46416;DHT22;32620;51.704;7.822;2022-07-21T13:52:27;21.60;99.90
46416;DHT22;32620;51.704;7.822;2022-07-21T13:54:52;21.80;99.90
46416;DHT22;32620;51.704;7.822;2022-07-21T13:57:18;21.70;99.90
46416;DHT22;32620;51.704;7.822;2022-07-21T13:59:43;21.60;99.90
46416;DHT22;32620;51.704;7.822;2022-07-21T14:02:09;21.50;99.90
46416;DHT22;32620;51.704;7.822;2022-07-21T14:04:34;21.50;99.90
46416;DHT22;32620;51.704;7.822;2022-07-21T16:58:02;19.00;99.90
46416;DHT22;32620;51.704;7.822;2022-07-21T17:02:55;18.80;99.90
46416;DHT22;32620;51.704;7.822;2022-07-21T17:05:23;19.00;99.90
46416;DHT22;32620;51.704;7.822;2022-07-21T20:47:45;18.10;99.90
46416;DHT22;32620;51.704;7.822;2022-07-21T20:50:11;18.20;99.90
46416;DHT22;32620;51.704;7.822;2022-07-21T20:52:39;17.80;99.90
46416;DHT22;32620;51.704;7.822;2022-07-21T21:12:06;17.90;99.90
46416;DHT22;32620;51.704;7.822;2022-07-21T21:14:32;18.00;99.90
46416;DHT22;32620;51.704;7.822;2022-07-21T21:16:58;18.00;99.90
46416;DHT22;32620;51.704;7.822;2022-07-21T21:31:33;18.00;99.90
46416;DHT22;32620;51.704;7.822;2022-07-21T21:33:58;18.00;99.90
46416;DHT22;32620;51.704;7.822;2022-07-21T21:36:24;17.90;99.90
46416;DHT22;32620;51.704;7.822;2022-07-21T21:38:49;17.90;99.90
46416;DHT22;32620;51.704;7.822;2022-07-21T21:41:15;17.90;99.90
46416;DHT22;32620;51.704;7.822;2022-07-21T22:44:34;17.20;99.90
46416;DHT22;32620;51.704;7.822;2022-07-21T22:47:00;17.20;99.90
46416;DHT22;32620;51.704;7.822;2022-07-21T22:49:26;17.10;99.90
46416;DHT22;32620;51.704;7.822;2022-07-21T22:51:51;17.10;99.90
46416;DHT22;32620;51.704;7.822;2022-07-21T22:54:17;17.00;99.90
46416;DHT22;32620;51.704;7.822;2022-07-21T22:56:42;17.00;99.90
46416;DHT22;32620;51.704;7.822;2022-07-21T22:59:07;16.90;99.90
46416;DHT22;32620;51.704;7.822;2022-07-21T23:01:33;17.00;99.90
46416;DHT22;32620;51.704;7.822;2022-07-21T23:03:58;16.80;99.90
46416;DHT22;32620;51.704;7.822;2022-07-21T23:06:24;16.80;99.90
46416;DHT22;32620;51.704;7.822;2022-07-21T23:08:49;16.80;99.90
46416;DHT22;32620;51.704;7.822;2022-07-21T23:11:15;16.80;99.90
46416;DHT22;32620;51.704;7.822;2022-07-21T23:13:41;16.80;99.90
46416;DHT22;32620;51.704;7.822;2022-07-21T23:16:06;16.70;99.90
46416;DHT22;32620;51.704;7.822;2022-07-21T23:18:32;16.70;99.90
46416;DHT22;32620;51.704;7.822;2022-07-21T23:20:57;16.80;99.90
46416;DHT22;32620;51.704;7.822;2022-07-21T23:23:23;16.80;99.90
46416;DHT22;32620;51.704;7.822;2022-07-21T23:25:48;16.70;99.90
46416;DHT22;32620;51.704;7.822;2022-07-21T23:28:14;16.70;99.90
46416;DHT22;32620;51.704;7.822;2022-07-21T23:30:39;16.70;99.90
46416;DHT22;32620;51.704;7.822;2022-07-21T23:33:05;16.70;99.90
46416;DHT22;32620;51.704;7.822;2022-07-21T23:35:30;16.70;99.90
46416;DHT22;32620;51.704;7.822;2022-07-21T23:37:56;16.70;99.90
46416;DHT22;32620;51.704;7.822;2022-07-21T23:42:47;16.50;99.90
46416;DHT22;32620;51.704;7.822;2022-07-21T23:45:12;16.50;99.90
46416;DHT22;32620;51.704;7.822;2022-07-21T23:47:38;16.50;99.90
46416;DHT22;32620;51.704;7.822;2022-07-21T23:57:21;16.40;99.90
46416;DHT22;32620;51.704;7.822;2022-07-21T23:59:47;16.50;99.90
